Time,TemperatureF,DewpointF,PressureIn,WindDirection,WindDirectionDegrees,WindSpeedMPH,WindSpeedGustMPH,Humidity,HourlyPrecipIn,Conditions,Clouds,dailyrainin,SoftwareType,DateUTC
2013-08-02 00:14:00,64.9,58.0,29.94,NW,316,1.0,2.0,77,0.00,,,0.00,weatherlink.com 1.10,2013-08-02 04:14:00,
2013-08-02 00:29:00,64.7,57.0,29.94,NNW,332,2.0,2.0,77,0.00,,,0.00,weatherlink.com 1.10,2013-08-02 04:29:00,
2013-08-02 00:44:00,64.9,57.0,29.94,NW,322,1.0,2.0,75,0.00,,,0.00,weatherlink.com 1.10,2013-08-02 04:44:00,
2013-08-02 00:59:00,64.7,57.0,29.94,NNW,334,2.0,3.0,75,0.00,,,0.00,weatherlink.com 1.10,2013-08-02 04:59:00,
2013-08-02 01:14:00,64.6,56.0,29.94,NW,326,2.0,3.0,74,0.00,,,0.00,weatherlink.com 1.10,2013-08-02 05:14:00,
2013-08-02 01:29:00,63.7,56.0,29.94,NW,326,2.0,3.0,76,0.00,,,0.00,weatherlink.com 1.10,2013-08-02 05:29:00,
2013-08-02 01:44:00,61.9,55.0,29.94,NW,316,1.0,2.0,78,0.00,,,0.00,weatherlink.com 1.10,2013-08-02 05:44:00,
2013-08-02 01:59:00,60.5,55.0,29.93,NW,318,0.0,1.0,82,0.00,,,0.00,weatherlink.com 1.10,2013-08-02 05:59:00,
2013-08-02 02:14:00,60.6,55.0,29.93,NW,317,0.0,1.0,83,0.00,,,0.00,weatherlink.com 1.10,2013-08-02 06:14:00,
2013-08-02 02:29:00,61.1,56.0,29.93,NW,318,0.0,0.0,82,0.00,,,0.00,weatherlink.com 1.10,2013-08-02 06:29:00,
2013-08-02 02:44:00,60.7,55.0,29.94,NW,318,0.0,1.0,81,0.00,,,0.00,weatherlink.com 1.10,2013-08-02 06:44:00,
2013-08-02 02:59:00,59.9,55.0,29.94,NW,319,0.0,1.0,85,0.00,,,0.00,weatherlink.com 1.10,2013-08-02 06:59:00,
2013-08-02 03:14:00,60.0,55.0,29.94,NW,319,0.0,1.0,84,0.00,,,0.00,weatherlink.com 1.10,2013-08-02 07:14:00,
2013-08-02 03:30:00,60.0,56.0,29.94,NW,319,0.0,1.0,85,0.00,,,0.00,weatherlink.com 1.10,2013-08-02 07:30:00,
2013-08-02 03:45:00,59.5,55.0,29.95,NW,319,0.0,0.0,85,0.00,,,0.00,weatherlink.com 1.10,2013-08-02 07:45:00,
2013-08-02 04:00:00,58.8,55.0,29.94,NW,319,0.0,1.0,87,0.00,,,0.00,weatherlink.com 1.10,2013-08-02 08:00:00,
2013-08-02 04:15:00,59.0,56.0,29.94,NNE,22,1.0,2.0,88,0.00,,,0.00,weatherlink.com 1.10,2013-08-02 08:15:00,
2013-08-02 04:30:00,58.6,55.0,29.94,NNE,16,1.0,1.0,89,0.00,,,0.00,weatherlink.com 1.10,2013-08-02 08:30:00,
2013-08-02 04:45:00,58.5,55.0,29.95,NNW,329,1.0,3.0,89,0.00,,,0.00,weatherlink.com 1.10,2013-08-02 08:45:00,
2013-08-02 05:00:00,57.7,55.0,29.94,NW,325,0.0,1.0,90,0.00,,,0.00,weatherlink.com 1.10,2013-08-02 09:00:00,
2013-08-02 05:15:00,57.4,55.0,29.95,NW,316,1.0,1.0,90,0.00,,,0.00,weatherlink.com 1.10,2013-08-02 09:15:00,
2013-08-02 05:30:00,57.8,55.0,29.94,NW,311,1.0,2.0,91,0.00,,,0.00,weatherlink.com 1.10,2013-08-02 09:30:00,
2013-08-02 05:45:00,58.3,56.0,29.95,NNE,20,1.0,1.0,90,0.00,,,0.00,weatherlink.com 1.10,2013-08-02 09:45:00,
2013-08-02 06:00:00,58.0,55.0,29.95,NNE,23,1.0,3.0,90,0.00,,,0.00,weatherlink.com 1.10,2013-08-02 10:00:00,
2013-08-02 06:15:00,57.6,55.0,29.94,NNE,25,1.0,2.0,91,0.00,,,0.00,weatherlink.com 1.10,2013-08-02 10:15:00,
2013-08-02 06:30:00,57.6,55.0,29.93,NNE,25,1.0,2.0,91,0.00,,,0.00,weatherlink.com 1.10,2013-08-02 10:30:00,
2013-08-02 06:45:00,57.9,55.0,29.93,NNE,32,2.0,3.0,90,0.00,,,0.00,weatherlink.com 1.10,2013-08-02 10:45:00,
2013-08-02 07:00:00,58.3,56.0,29.93,NNE,30,2.0,3.0,91,0.00,,,0.00,weatherlink.com 1.10,2013-08-02 11:00:00,
2013-08-02 07:15:00,59.1,56.0,29.94,NNE,32,2.0,3.0,89,0.00,,,0.00,weatherlink.com 1.10,2013-08-02 11:15:00,
2013-08-02 07:30:00,59.1,56.0,29.94,SE,127,1.0,3.0,89,0.00,,,0.00,weatherlink.com 1.10,2013-08-02 11:30:00,
2013-08-02 07:45:00,59.5,56.0,29.94,SSE,153,2.0,3.0,88,0.00,,,0.00,weatherlink.com 1.10,2013-08-02 11:45:00,
2013-08-02 08:00:00,59.7,56.0,29.94,SSE,148,2.0,4.0,88,0.00,,,0.00,weatherlink.com 1.10,2013-08-02 12:00:00,
2013-08-02 08:15:00,60.1,56.0,29.94,South,176,4.0,4.0,87,0.00,,,0.00,weatherlink.com 1.10,2013-08-02 12:15:00,
2013-08-02 08:30:00,60.9,57.0,29.94,South,173,2.0,5.0,86,0.00,,,0.00,weatherlink.com 1.10,2013-08-02 12:30:00,
2013-08-02 08:45:00,61.9,57.0,29.94,SSW,194,4.0,6.0,84,0.00,,,0.00,weatherlink.com 1.10,2013-08-02 12:45:00,
2013-08-02 09:00:00,63.3,58.0,29.93,South,181,4.0,6.0,82,0.00,,,0.00,weatherlink.com 1.10,2013-08-02 13:00:00,
2013-08-02 09:15:00,65.1,60.0,29.93,SSW,202,4.0,7.0,82,0.00,,,0.00,weatherlink.com 1.10,2013-08-02 13:15:00,
2013-08-02 09:30:00,67.0,60.0,29.94,SW,228,4.0,7.0,79,0.00,,,0.00,weatherlink.com 1.10,2013-08-02 13:30:00,
2013-08-02 09:45:00,68.2,61.0,29.95,South,191,3.0,9.0,77,0.00,,,0.00,weatherlink.com 1.10,2013-08-02 13:45:00,
2013-08-02 10:00:00,69.0,61.0,29.95,WSW,245,5.0,8.0,75,0.00,,,0.00,weatherlink.com 1.10,2013-08-02 14:00:00,
2013-08-02 10:15:00,70.0,61.0,29.95,SSW,205,6.0,10.0,72,0.00,,,0.00,weatherlink.com 1.10,2013-08-02 14:15:00,
2013-08-02 10:30:00,70.3,60.0,29.95,SW,235,11.0,13.0,70,0.00,,,0.00,weatherlink.com 1.10,2013-08-02 14:30:00,
2013-08-02 10:45:00,70.7,60.0,29.95,SSW,205,9.0,14.0,68,0.00,,,0.00,weatherlink.com 1.10,2013-08-02 14:45:00,
2013-08-02 11:00:00,71.9,60.0,29.95,SW,220,6.0,12.0,66,0.00,,,0.00,weatherlink.com 1.10,2013-08-02 15:00:00,
2013-08-02 11:15:00,72.7,61.0,29.95,South,184,10.0,13.0,66,0.00,,,0.00,weatherlink.com 1.10,2013-08-02 15:15:00,
2013-08-02 11:30:00,74.0,60.0,29.95,SW,224,5.0,12.0,61,0.00,,,0.00,weatherlink.com 1.10,2013-08-02 15:30:00,
2013-08-02 11:46:00,75.0,60.0,29.95,WSW,238,13.0,13.0,59,0.00,,,0.00,weatherlink.com 1.10,2013-08-02 15:46:00,
2013-08-02 12:01:00,76.2,60.0,29.96,SW,235,8.0,16.0,57,0.00,,,0.00,weatherlink.com 1.10,2013-08-02 16:01:00,
2013-08-02 12:16:00,75.7,61.0,29.96,WSW,240,8.0,12.0,60,0.00,,,0.00,weatherlink.com 1.10,2013-08-02 16:16:00,
2013-08-02 12:31:00,77.2,61.0,29.96,WSW,239,5.0,13.0,57,0.00,,,0.00,weatherlink.com 1.10,2013-08-02 16:31:00,
2013-08-02 12:46:00,78.2,62.0,29.96,SW,233,8.0,16.0,57,0.00,,,0.00,weatherlink.com 1.10,2013-08-02 16:46:00,
2013-08-02 13:01:00,78.6,62.0,29.96,West,262,7.0,13.0,57,0.00,,,0.00,weatherlink.com 1.10,2013-08-02 17:01:00,
2013-08-02 13:16:00,79.2,62.0,29.95,WSW,255,11.0,15.0,55,0.00,,,0.00,weatherlink.com 1.10,2013-08-02 17:16:00,
2013-08-02 13:31:00,80.1,62.0,29.94,WSW,243,7.0,16.0,55,0.00,,,0.00,weatherlink.com 1.10,2013-08-02 17:31:00,
2013-08-02 13:46:00,80.5,63.0,29.94,SW,232,17.0,19.0,56,0.00,,,0.00,weatherlink.com 1.10,2013-08-02 17:46:00,
2013-08-02 14:31:00,81.3,62.0,29.92,SW,235,13.0,19.0,53,0.00,,,0.00,weatherlink.com 1.10,2013-08-02 18:31:00,
2013-08-02 14:46:00,81.2,63.0,29.92,WSW,248,11.0,16.0,54,0.00,,,0.00,weatherlink.com 1.10,2013-08-02 18:46:00,
2013-08-02 15:01:00,82.1,64.0,29.91,SW,221,7.0,19.0,55,0.00,,,0.00,weatherlink.com 1.10,2013-08-02 19:01:00,
2013-08-02 15:16:00,82.8,63.0,29.92,WSW,248,9.0,15.0,52,0.00,,,0.00,weatherlink.com 1.10,2013-08-02 19:16:00,
2013-08-02 15:31:00,81.6,63.0,29.92,SW,228,11.0,18.0,54,0.00,,,0.00,weatherlink.com 1.10,2013-08-02 19:31:00,
2013-08-02 15:46:00,81.4,64.0,29.92,West,267,8.0,14.0,56,0.00,,,0.00,weatherlink.com 1.10,2013-08-02 19:46:00,
2013-08-02 16:01:00,81.6,64.0,29.91,West,279,7.0,16.0,55,0.00,,,0.00,weatherlink.com 1.10,2013-08-02 20:01:00,
2013-08-02 16:16:00,81.1,63.0,29.91,WSW,242,18.0,18.0,55,0.00,,,0.00,weatherlink.com 1.10,2013-08-02 20:16:00,
2013-08-02 16:31:00,80.1,62.0,29.91,WSW,242,15.0,20.0,54,0.00,,,0.00,weatherlink.com 1.10,2013-08-02 20:31:00,
2013-08-02 17:01:00,78.3,62.0,29.91,SW,236,13.0,18.0,57,0.00,,,0.00,weatherlink.com 1.10,2013-08-02 21:01:00,
2013-08-02 17:16:00,77.4,63.0,29.91,WSW,238,6.0,17.0,61,0.00,,,0.00,weatherlink.com 1.10,2013-08-02 21:16:00,
2013-08-02 17:31:00,76.8,63.0,29.91,West,266,5.0,12.0,62,0.00,,,0.00,weatherlink.com 1.10,2013-08-02 21:31:00,
2013-08-02 17:46:00,76.6,63.0,29.91,WSW,245,4.0,12.0,64,0.00,,,0.00,weatherlink.com 1.10,2013-08-02 21:46:00,
2013-08-02 18:01:00,76.0,64.0,29.90,WSW,252,5.0,14.0,66,0.00,,,0.00,weatherlink.com 1.10,2013-08-02 22:01:00,
2013-08-02 18:16:00,75.6,64.0,29.89,SSW,198,8.0,14.0,68,0.00,,,0.00,weatherlink.com 1.10,2013-08-02 22:16:00,
2013-08-02 18:46:00,75.1,65.0,29.89,WSW,250,4.0,10.0,71,0.00,,,0.00,weatherlink.com 1.10,2013-08-02 22:46:00,
2013-08-02 19:01:00,75.1,65.0,29.90,SW,233,4.0,8.0,70,0.00,,,0.00,weatherlink.com 1.10,2013-08-02 23:01:00,
2013-08-02 19:16:00,75.3,64.0,29.90,SW,229,4.0,11.0,69,0.00,,,0.00,weatherlink.com 1.10,2013-08-02 23:16:00,
2013-08-02 19:31:00,75.0,64.0,29.90,SW,228,10.0,10.0,69,0.00,,,0.00,weatherlink.com 1.10,2013-08-02 23:31:00,
2013-08-02 19:46:00,75.1,64.0,29.90,West,267,3.0,10.0,69,0.00,,,0.00,weatherlink.com 1.10,2013-08-02 23:46:00,
2013-08-02 20:01:00,75.2,64.0,29.90,WSW,242,6.0,11.0,68,0.00,,,0.00,weatherlink.com 1.10,2013-08-03 00:01:00,
2013-08-02 20:16:00,75.1,64.0,29.91,WSW,252,2.0,8.0,68,0.00,,,0.00,weatherlink.com 1.10,2013-08-03 00:16:00,
2013-08-02 20:32:00,74.9,64.0,29.90,SW,236,3.0,11.0,69,0.00,,,0.00,weatherlink.com 1.10,2013-08-03 00:32:00,
2013-08-02 20:46:00,74.8,64.0,29.91,West,260,4.0,7.0,70,0.00,,,0.00,weatherlink.com 1.10,2013-08-03 00:46:00,
2013-08-02 21:02:00,74.5,65.0,29.91,SW,221,2.0,6.0,71,0.00,,,0.00,weatherlink.com 1.10,2013-08-03 01:02:00,
2013-08-02 21:16:00,74.2,65.0,29.92,SW,214,5.0,6.0,72,0.00,,,0.00,weatherlink.com 1.10,2013-08-03 01:16:00,
2013-08-02 22:01:00,73.6,65.0,29.91,SW,233,6.0,9.0,74,0.00,,,0.00,weatherlink.com 1.10,2013-08-03 02:01:00,
2013-08-02 22:16:00,73.2,65.0,29.90,SW,214,5.0,8.0,75,0.00,,,0.00,weatherlink.com 1.10,2013-08-03 02:16:00,
2013-08-02 22:31:00,72.6,65.0,29.90,SSW,198,3.0,6.0,76,0.00,,,0.00,weatherlink.com 1.10,2013-08-03 02:31:00,
2013-08-02 22:46:00,71.8,65.0,29.89,SW,221,4.0,7.0,79,0.00,,,0.00,weatherlink.com 1.10,2013-08-03 02:46:00,
2013-08-02 23:01:00,71.2,65.0,29.89,SW,225,7.0,9.0,80,0.00,,,0.00,weatherlink.com 1.10,2013-08-03 03:01:00,
2013-08-02 23:16:00,71.0,65.0,29.90,SSW,212,5.0,7.0,81,0.00,,,0.00,weatherlink.com 1.10,2013-08-03 03:16:00,
2013-08-02 23:31:00,70.7,65.0,29.90,SSW,200,3.0,8.0,82,0.00,,,0.00,weatherlink.com 1.10,2013-08-03 03:31:00,
2013-08-02 23:46:00,70.5,65.0,29.90,SSW,195,3.0,7.0,83,0.00,,,0.00,weatherlink.com 1.10,2013-08-03 03:46:00,